createdAt,value
2019-01-30T00:01:26.037Z,23.00
2019-01-30T00:04:05.776Z,22.90
2019-01-30T00:06:39.074Z,22.90
2019-01-30T00:09:13.342Z,22.70
2019-01-30T00:11:46.690Z,22.60
2019-01-30T00:14:20.163Z,22.40
2019-01-30T00:16:53.529Z,22.30
2019-01-30T00:19:33.497Z,22.20
2019-01-30T00:22:06.801Z,22.10
2019-01-30T00:24:40.394Z,22.00
2019-01-30T00:27:13.978Z,21.80
2019-01-30T00:30:03.646Z,21.80
2019-01-30T00:32:28.776Z,21.70
2019-01-30T00:35:08.779Z,21.60
2019-01-30T00:37:42.084Z,21.50
2019-01-30T00:40:15.491Z,21.50
2019-01-30T00:42:48.806Z,21.30
2019-01-30T00:45:28.892Z,21.50
2019-01-30T00:48:02.301Z,21.30
2019-01-30T00:50:35.637Z,21.20
2019-01-30T00:53:11.850Z,21.10
2019-01-30T00:55:45.841Z,21.00
2019-01-30T00:58:19.310Z,20.90
2019-01-30T01:00:52.744Z,20.90
2019-01-30T01:03:26.042Z,20.80
2019-01-30T01:05:59.441Z,20.80
2019-01-30T01:08:32.810Z,20.80
2019-01-30T01:11:19.956Z,20.70
2019-01-30T01:13:54.132Z,20.60
2019-01-30T01:16:27.536Z,20.70
2019-01-30T01:19:00.974Z,20.50
2019-01-30T01:21:40.965Z,20.50
2019-01-30T01:24:14.281Z,20.40
2019-01-30T01:26:49.910Z,20.20
2019-01-30T01:29:23.403Z,20.20
2019-01-30T01:31:56.760Z,20.10
2019-01-30T01:34:30.059Z,20.00
2019-01-30T01:37:05.510Z,20.10
2019-01-30T01:39:42.888Z,20.00
2019-01-30T01:42:22.649Z,19.90
2019-01-30T01:44:59.386Z,19.90
2019-01-30T01:47:32.857Z,19.90
2019-01-30T01:50:06.511Z,19.80
2019-01-30T01:52:40.484Z,19.70
2019-01-30T01:55:14.059Z,19.70
2019-01-30T01:57:47.549Z,19.70
2019-01-30T02:00:34.990Z,19.60
2019-01-30T02:03:03.852Z,19.50
2019-01-30T02:05:37.123Z,19.50
2019-01-30T02:08:10.451Z,19.40
2019-01-30T02:10:53.108Z,19.40
2019-01-30T02:13:36.193Z,19.30
2019-01-30T02:16:09.522Z,19.20
2019-01-30T02:18:43.063Z,19.10
2019-01-30T02:21:16.537Z,19.10
2019-01-30T02:23:51.416Z,19.10
2019-01-30T02:26:25.847Z,19.00
2019-01-30T02:28:59.669Z,19.00
2019-01-30T02:31:36.224Z,19.00
2019-01-30T02:34:09.701Z,18.90
2019-01-30T02:36:58.601Z,18.80
2019-01-30T02:39:34.560Z,18.70
2019-01-30T02:42:08.038Z,18.70
2019-01-30T02:44:43.227Z,18.70
2019-01-30T02:47:16.167Z,18.60
2019-01-30T02:49:58.839Z,18.60
2019-01-30T02:52:33.124Z,18.60
2019-01-30T02:55:07.722Z,18.50
2019-01-30T02:57:42.600Z,18.50
2019-01-30T03:00:24.818Z,18.50
2019-01-30T03:02:59.304Z,18.50
2019-01-30T03:05:34.660Z,18.50
2019-01-30T03:08:18.967Z,18.40
2019-01-30T03:11:05.486Z,18.30
2019-01-30T03:13:40.897Z,18.30
2019-01-30T03:16:15.106Z,18.40
2019-01-30T03:18:51.052Z,18.20
2019-01-30T03:21:26.689Z,18.20
2019-01-30T03:24:00.711Z,18.20
2019-01-30T03:26:44.937Z,18.30
2019-01-30T03:29:20.096Z,18.20
2019-01-30T03:31:54.502Z,18.20
2019-01-30T03:34:39.381Z,18.10
2019-01-30T03:37:13.401Z,18.20
2019-01-30T03:39:50.648Z,18.00
2019-01-30T03:42:25.818Z,17.90
2019-01-30T03:45:06.309Z,17.90
2019-01-30T03:47:39.781Z,17.80
2019-01-30T03:50:13.999Z,17.80
2019-01-30T03:52:47.660Z,17.80
2019-01-30T03:55:22.340Z,17.80
2019-01-30T03:58:02.715Z,17.80
2019-01-30T04:00:36.066Z,17.70
2019-01-30T04:03:09.390Z,17.70
2019-01-30T04:05:46.003Z,17.60
2019-01-30T04:08:19.420Z,17.70
2019-01-30T04:10:52.812Z,17.60
2019-01-30T04:13:32.372Z,17.60
2019-01-30T04:16:05.685Z,17.40
2019-01-30T04:18:39.497Z,17.60
2019-01-30T04:21:12.970Z,17.50
2019-01-30T04:23:54.583Z,17.60
2019-01-30T04:26:28.069Z,17.40
2019-01-30T04:29:08.319Z,17.40
2019-01-30T04:31:41.698Z,17.40
2019-01-30T04:34:15.051Z,17.40
2019-01-30T04:36:48.628Z,17.40
2019-01-30T04:39:29.179Z,17.40
2019-01-30T04:42:02.501Z,17.30
2019-01-30T04:44:35.878Z,17.30
2019-01-30T04:47:09.175Z,17.30
2019-01-30T04:49:42.513Z,17.10
2019-01-30T04:52:15.834Z,17.10
2019-01-30T04:54:49.270Z,17.20
2019-01-30T04:57:22.586Z,17.00
2019-01-30T04:59:55.961Z,16.90
2019-01-30T05:02:29.208Z,16.90
2019-01-30T05:05:09.684Z,17.00
2019-01-30T05:07:44.806Z,17.00
2019-01-30T05:10:18.515Z,16.80
2019-01-30T05:12:51.977Z,16.70
2019-01-30T05:15:32.431Z,16.80
2019-01-30T05:18:05.811Z,16.80
2019-01-30T05:20:39.160Z,16.80
2019-01-30T05:23:12.518Z,16.80
2019-01-30T05:25:45.883Z,16.70
2019-01-30T05:28:19.134Z,16.70
2019-01-30T05:30:52.489Z,16.70
2019-01-30T05:33:25.761Z,16.60
2019-01-30T05:36:05.541Z,16.50
2019-01-30T05:38:45.932Z,16.50
2019-01-30T05:41:19.407Z,16.40
2019-01-30T05:43:52.664Z,16.40
2019-01-30T05:46:26.562Z,16.40
2019-01-30T05:48:59.873Z,16.30
2019-01-30T05:51:33.249Z,16.20
2019-01-30T05:54:06.522Z,16.30
2019-01-30T05:56:46.640Z,16.20
2019-01-30T05:59:19.890Z,16.20
2019-01-30T06:01:53.261Z,16.20
2019-01-30T06:04:26.549Z,16.00
2019-01-30T06:06:59.931Z,16.00
2019-01-30T06:09:33.228Z,15.90
2019-01-30T06:12:12.979Z,16.10
2019-01-30T06:14:46.257Z,16.00
2019-01-30T06:17:26.524Z,16.00
2019-01-30T06:19:59.898Z,16.00
2019-01-30T06:22:33.277Z,15.90
2019-01-30T06:25:06.589Z,15.90
2019-01-30T06:27:39.925Z,15.90
2019-01-30T06:30:14.886Z,15.90
2019-01-30T06:32:54.962Z,15.80
2019-01-30T06:35:28.264Z,15.80
2019-01-30T06:38:08.063Z,15.70
2019-01-30T06:40:48.441Z,15.60
2019-01-30T06:43:21.812Z,15.80
2019-01-30T06:45:55.078Z,15.70
2019-01-30T06:48:36.178Z,15.70
2019-01-30T06:51:09.440Z,15.60
2019-01-30T06:53:42.838Z,15.60
2019-01-30T06:56:16.565Z,15.50
2019-01-30T06:58:49.903Z,15.40
2019-01-30T07:01:23.225Z,15.40
2019-01-30T07:04:03.278Z,15.30
2019-01-30T07:06:36.538Z,15.40
2019-01-30T07:09:20.161Z,15.40
2019-01-30T07:11:53.763Z,15.30
2019-01-30T07:14:27.470Z,15.20
2019-01-30T07:17:01.119Z,15.30
2019-01-30T07:19:34.486Z,15.30
2019-01-30T07:22:07.821Z,15.20
2019-01-30T07:24:41.161Z,15.20
2019-01-30T07:27:14.428Z,15.20
2019-01-30T07:29:54.434Z,15.10
2019-01-30T07:32:28.170Z,15.10
2019-01-30T07:35:01.846Z,15.20
2019-01-30T07:37:35.253Z,15.20
2019-01-30T07:40:08.739Z,15.10
2019-01-30T07:42:49.448Z,15.10
2019-01-30T07:45:24.322Z,15.10
2019-01-30T07:47:58.038Z,15.10
2019-01-30T07:50:31.710Z,15.00
2019-01-30T07:53:05.470Z,15.00
2019-01-30T07:55:39.186Z,15.00
2019-01-30T07:58:12.616Z,15.00
2019-01-30T08:00:52.502Z,15.10
2019-01-30T08:03:25.887Z,15.00
2019-01-30T08:05:59.518Z,15.00
2019-01-30T08:08:33.051Z,15.00
2019-01-30T08:11:07.376Z,14.90
2019-01-30T08:13:41.742Z,14.90
2019-01-30T08:16:15.317Z,14.90
2019-01-30T08:18:48.869Z,14.90
2019-01-30T08:21:22.385Z,14.90
2019-01-30T08:23:55.956Z,14.90
2019-01-30T08:26:29.911Z,14.90
2019-01-30T08:29:04.118Z,15.00
2019-01-30T08:31:38.032Z,14.80
2019-01-30T08:34:11.657Z,14.80
2019-01-30T08:36:45.640Z,14.90
2019-01-30T08:39:19.449Z,14.70
2019-01-30T08:41:53.806Z,14.70
2019-01-30T08:44:34.357Z,14.70
2019-01-30T08:47:14.822Z,14.80
2019-01-30T08:49:48.167Z,14.90
2019-01-30T08:52:21.780Z,15.00
2019-01-30T08:54:55.326Z,15.10
2019-01-30T08:57:28.711Z,15.10
2019-01-30T09:00:02.073Z,15.20
2019-01-30T09:02:35.456Z,15.20
2019-01-30T09:05:09.458Z,15.20
2019-01-30T09:07:44.240Z,15.30
2019-01-30T09:10:20.097Z,15.20
2019-01-30T09:12:53.428Z,15.20
2019-01-30T09:15:27.758Z,15.20
2019-01-30T09:18:08.474Z,15.10
2019-01-30T09:20:41.762Z,15.10
2019-01-30T09:23:15.583Z,15.00
2019-01-30T09:25:49.033Z,15.00
2019-01-30T09:28:29.489Z,15.00
2019-01-30T09:31:02.941Z,15.00
2019-01-30T09:33:36.556Z,14.90
2019-01-30T09:36:10.598Z,15.00
2019-01-30T09:38:51.683Z,15.00
2019-01-30T09:41:25.193Z,15.00
2019-01-30T09:43:58.834Z,15.10
2019-01-30T09:46:32.850Z,15.20
2019-01-30T09:49:06.606Z,15.20
2019-01-30T09:51:40.134Z,15.10
2019-01-30T09:54:14.032Z,15.00
2019-01-30T09:56:47.989Z,14.90
2019-01-30T09:59:21.757Z,14.80
2019-01-30T10:01:55.730Z,14.90
2019-01-30T10:04:36.427Z,14.80
2019-01-30T10:07:10.444Z,14.60
2019-01-30T10:09:44.499Z,14.60
2019-01-30T10:12:18.354Z,14.60
2019-01-30T10:14:52.181Z,14.80
2019-01-30T10:17:26.251Z,14.70
2019-01-30T10:20:06.716Z,14.70
2019-01-30T10:22:40.621Z,14.50
2019-01-30T10:25:14.185Z,14.40
2019-01-30T10:27:48.022Z,14.50
2019-01-30T10:30:25.063Z,14.50
2019-01-30T10:32:59.036Z,14.70
2019-01-30T10:35:39.024Z,14.60
2019-01-30T10:38:12.407Z,14.60
2019-01-30T10:40:45.780Z,14.60
2019-01-30T10:43:19.168Z,14.50
2019-01-30T10:45:53.380Z,14.60
2019-01-30T10:48:36.462Z,14.60
2019-01-30T10:51:09.300Z,14.60
2019-01-30T10:53:42.669Z,14.60
2019-01-30T10:56:16.579Z,14.60
2019-01-30T10:58:50.268Z,14.50
2019-01-30T11:01:23.793Z,14.60
2019-01-30T11:03:57.687Z,14.50
2019-01-30T11:06:31.309Z,14.60
2019-01-30T11:09:05.028Z,14.70
2019-01-30T11:11:38.443Z,14.80
2019-01-30T11:14:11.812Z,14.80
2019-01-30T11:16:45.335Z,14.80
2019-01-30T11:19:18.785Z,14.60
2019-01-30T11:21:52.345Z,14.70
2019-01-30T11:24:25.667Z,14.60
2019-01-30T11:26:59.105Z,14.80
2019-01-30T11:29:33.097Z,14.80
2019-01-30T11:32:06.481Z,14.90
2019-01-30T11:34:39.844Z,14.80
2019-01-30T11:37:13.344Z,14.70
2019-01-30T11:39:46.852Z,14.60
2019-01-30T11:42:20.284Z,14.60
2019-01-30T11:44:54.047Z,14.50
2019-01-30T11:47:27.534Z,14.40
2019-01-30T11:50:01.201Z,14.40
2019-01-30T11:52:34.596Z,14.30
2019-01-30T11:55:08.353Z,14.30
2019-01-30T11:57:44.312Z,14.30
2019-01-30T12:00:26.349Z,14.30
2019-01-30T12:03:00.099Z,14.30
2019-01-30T12:05:34.136Z,14.40
2019-01-30T12:08:08.276Z,14.40
2019-01-30T12:10:41.611Z,14.30
2019-01-30T12:13:22.577Z,14.30
2019-01-30T12:15:55.995Z,14.30
2019-01-30T12:18:29.388Z,14.40
2019-01-30T12:21:02.843Z,14.40
2019-01-30T12:23:36.211Z,14.50
2019-01-30T12:26:10.260Z,14.60
2019-01-30T12:28:51.671Z,14.60
2019-01-30T12:31:25.559Z,14.60
2019-01-30T12:33:59.725Z,14.80
2019-01-30T12:36:33.572Z,14.70
2019-01-30T12:39:17.342Z,14.70
2019-01-30T12:41:51.340Z,14.80
2019-01-30T12:44:25.189Z,14.80
2019-01-30T12:46:59.130Z,14.80
2019-01-30T12:49:32.603Z,14.70
2019-01-30T12:52:19.243Z,14.80
2019-01-30T12:54:59.155Z,14.80
2019-01-30T12:57:36.095Z,14.80
2019-01-30T13:00:19.154Z,14.90
2019-01-30T13:02:52.781Z,14.90
2019-01-30T13:05:33.602Z,14.90
2019-01-30T13:08:06.945Z,14.80
2019-01-30T13:10:48.286Z,14.90
2019-01-30T13:13:23.954Z,15.00
2019-01-30T13:16:04.367Z,14.80
2019-01-30T13:18:38.211Z,14.80
2019-01-30T13:21:22.650Z,14.80
2019-01-30T13:23:56.732Z,14.80
2019-01-30T13:26:30.291Z,14.80
2019-01-30T13:29:48.205Z,14.90
2019-01-30T13:32:28.515Z,14.80
2019-01-30T13:35:02.340Z,14.90
2019-01-30T13:37:36.205Z,14.90
2019-01-30T13:40:13.199Z,15.00
2019-01-30T13:42:46.815Z,15.10
2019-01-30T13:45:20.202Z,15.10
2019-01-30T13:47:53.830Z,15.30
2019-01-30T13:50:28.645Z,15.40
2019-01-30T13:53:09.428Z,15.70
2019-01-30T13:55:44.369Z,15.80
2019-01-30T13:58:27.378Z,16.20
2019-01-30T14:01:00.912Z,16.60
2019-01-30T14:03:40.895Z,16.90
2019-01-30T14:06:14.660Z,16.80
2019-01-30T14:08:48.404Z,16.80
2019-01-30T14:11:22.063Z,16.80
2019-01-30T14:13:56.060Z,16.80
2019-01-30T14:16:29.755Z,17.00
2019-01-30T14:19:03.247Z,17.30
2019-01-30T14:21:36.585Z,17.40
2019-01-30T14:24:16.951Z,17.70
2019-01-30T14:26:52.902Z,17.80
2019-01-30T14:29:33.739Z,17.80
2019-01-30T14:32:25.794Z,17.60
2019-01-30T14:35:10.828Z,17.70
2019-01-30T14:37:44.209Z,18.00
2019-01-30T14:40:26.925Z,18.20
2019-01-30T14:43:03.015Z,18.10
2019-01-30T14:45:44.534Z,18.60
2019-01-30T14:48:24.084Z,18.60
2019-01-30T14:51:05.214Z,18.40
2019-01-30T14:53:39.301Z,18.20
2019-01-30T14:56:15.370Z,18.00
2019-01-30T14:58:49.390Z,17.90
2019-01-30T15:01:23.515Z,18.10
2019-01-30T15:04:02.869Z,18.50
2019-01-30T15:06:55.927Z,18.70
2019-01-30T15:09:38.351Z,18.80
2019-01-30T15:12:19.210Z,19.20
2019-01-30T15:14:53.540Z,19.50
2019-01-30T15:17:30.935Z,19.60
2019-01-30T15:20:04.347Z,19.80
2019-01-30T15:22:45.352Z,19.80
2019-01-30T15:25:20.814Z,20.90
2019-01-30T15:27:55.957Z,22.00
2019-01-30T15:30:40.565Z,21.90
2019-01-30T15:33:17.213Z,22.00
2019-01-30T15:35:52.161Z,21.40
2019-01-30T15:38:26.787Z,23.50
2019-01-30T15:41:00.451Z,22.80
2019-01-30T15:43:45.421Z,24.50
2019-01-30T15:46:20.663Z,22.90
2019-01-30T15:49:06.438Z,22.30
2019-01-30T15:51:40.237Z,21.60
2019-01-30T15:54:20.652Z,21.20
2019-01-30T15:56:55.532Z,20.80
2019-01-30T15:59:30.054Z,20.60
2019-01-30T16:02:04.795Z,21.60
2019-01-30T16:04:47.389Z,21.10
2019-01-30T16:07:23.282Z,21.30
2019-01-30T16:10:05.776Z,21.00
2019-01-30T16:12:39.596Z,20.70
2019-01-30T16:15:18.067Z,20.40
2019-01-30T16:17:51.444Z,20.30
2019-01-30T16:20:24.892Z,20.30
2019-01-30T16:23:04.514Z,20.10
2019-01-30T16:25:45.034Z,20.20
2019-01-30T16:28:18.592Z,20.30
2019-01-30T16:30:52.478Z,20.20
2019-01-30T16:33:28.949Z,20.10
2019-01-30T16:36:02.383Z,19.90
2019-01-30T16:38:35.705Z,19.80
2019-01-30T16:41:09.090Z,19.70
2019-01-30T16:43:42.475Z,19.70
2019-01-30T16:46:23.382Z,19.90
2019-01-30T16:48:57.237Z,20.00
2019-01-30T16:51:45.132Z,20.00
2019-01-30T16:54:19.613Z,19.60
2019-01-30T16:56:53.604Z,19.80
2019-01-30T16:59:27.414Z,19.60
2019-01-30T17:02:02.320Z,19.80
2019-01-30T17:04:36.525Z,20.20
2019-01-30T17:07:10.064Z,20.40
2019-01-30T17:09:43.534Z,20.50
2019-01-30T17:12:23.922Z,20.60
2019-01-30T17:14:57.611Z,20.60
2019-01-30T17:17:31.124Z,20.70
2019-01-30T17:20:04.523Z,20.70
2019-01-30T17:22:46.385Z,20.80
2019-01-30T17:25:21.422Z,21.10
2019-01-30T17:27:54.905Z,20.90
2019-01-30T17:30:38.930Z,21.10
2019-01-30T17:33:22.234Z,21.10
2019-01-30T17:36:05.243Z,21.40
2019-01-30T17:38:38.876Z,21.50
2019-01-30T17:41:14.404Z,21.50
2019-01-30T17:43:50.516Z,21.90
2019-01-30T17:46:28.999Z,22.00
2019-01-30T17:49:03.842Z,21.60
2019-01-30T17:51:38.489Z,21.80
2019-01-30T17:54:19.002Z,21.70
2019-01-30T17:56:59.882Z,22.10
2019-01-30T17:59:34.004Z,22.20
2019-01-30T18:02:09.914Z,22.00
2019-01-30T18:04:48.965Z,22.20
2019-01-30T18:07:24.123Z,22.40
2019-01-30T18:09:58.819Z,22.30
2019-01-30T18:12:34.654Z,22.40
2019-01-30T18:15:10.168Z,22.20
2019-01-30T18:17:44.841Z,22.40
2019-01-30T18:20:31.605Z,22.60
2019-01-30T18:23:05.598Z,22.90
2019-01-30T18:25:39.741Z,22.70
2019-01-30T18:28:13.222Z,22.50
2019-01-30T18:30:47.212Z,22.80
2019-01-30T18:33:21.123Z,22.70
2019-01-30T18:36:02.505Z,23.00
2019-01-30T18:38:36.445Z,23.00
2019-01-30T18:41:12.275Z,23.50
2019-01-30T18:43:48.432Z,23.10
2019-01-30T18:46:22.260Z,23.40
2019-01-30T18:48:56.473Z,23.40
2019-01-30T18:51:36.641Z,23.40
2019-01-30T18:54:10.424Z,23.40
2019-01-30T18:56:44.722Z,23.30
2019-01-30T18:59:33.742Z,23.30
2019-01-30T19:02:07.183Z,23.40
2019-01-30T19:04:41.125Z,23.60
2019-01-30T19:07:15.511Z,23.60
2019-01-30T19:09:49.572Z,23.50
2019-01-30T19:12:23.092Z,23.60
2019-01-30T19:14:57.308Z,23.50
2019-01-30T19:17:53.870Z,23.70
2019-01-30T19:20:32.439Z,23.60
2019-01-30T19:23:06.886Z,24.00
2019-01-30T19:25:40.136Z,24.20
2019-01-30T19:28:16.090Z,24.40
2019-01-30T19:30:48.668Z,24.60
2019-01-30T19:33:30.612Z,24.10
2019-01-30T19:36:03.769Z,24.40
2019-01-30T19:38:44.290Z,24.50
2019-01-30T19:41:19.403Z,24.40
2019-01-30T19:43:52.972Z,24.80
2019-01-30T19:46:25.719Z,25.00
2019-01-30T19:49:06.170Z,25.50
2019-01-30T19:51:39.225Z,28.60
2019-01-30T19:54:12.495Z,31.40
2019-01-30T19:56:45.550Z,32.30
2019-01-30T19:59:20.101Z,34.10
2019-01-30T20:01:53.451Z,34.40
2019-01-30T20:04:33.035Z,34.70
2019-01-30T20:07:14.518Z,34.70
2019-01-30T20:09:40.914Z,35.30
2019-01-30T20:12:13.696Z,35.60
2019-01-30T20:14:47.728Z,36.40
2019-01-30T20:17:20.448Z,36.00
2019-01-30T20:19:54.251Z,35.70
2019-01-30T20:22:32.113Z,32.10
2019-01-30T20:25:05.998Z,32.60
2019-01-30T20:27:40.001Z,33.60
2019-01-30T20:30:23.819Z,33.50
2019-01-30T20:33:00.201Z,31.00
2019-01-30T20:35:40.521Z,29.80
2019-01-30T20:38:13.226Z,32.10
2019-01-30T20:40:46.501Z,32.90
2019-01-30T20:43:19.981Z,34.10
2019-01-30T20:46:01.139Z,34.50
2019-01-30T20:48:45.183Z,34.10
2019-01-30T20:51:15.080Z,34.90
2019-01-30T20:53:49.211Z,34.90
2019-01-30T20:56:22.623Z,34.20
2019-01-30T20:58:56.410Z,32.40
2019-01-30T21:01:37.850Z,31.90
2019-01-30T21:04:10.944Z,33.10
2019-01-30T21:06:44.010Z,33.50
2019-01-30T21:09:17.368Z,33.50
2019-01-30T21:11:50.149Z,33.60
2019-01-30T21:14:23.194Z,33.20
2019-01-30T21:16:56.509Z,33.50
2019-01-30T21:19:29.166Z,33.50
2019-01-30T21:22:09.319Z,33.50
2019-01-30T21:24:42.249Z,33.40
2019-01-30T21:27:16.322Z,31.50
2019-01-30T21:29:49.674Z,30.00
2019-01-30T21:32:29.169Z,28.50
2019-01-30T21:35:05.541Z,27.60
2019-01-30T21:37:48.578Z,27.10
2019-01-30T21:40:15.239Z,26.40
2019-01-30T21:42:55.244Z,26.30
2019-01-30T21:45:28.537Z,26.20
2019-01-30T21:48:07.877Z,25.90
2019-01-30T21:50:40.802Z,25.50
2019-01-30T21:53:20.489Z,25.60
2019-01-30T21:55:54.066Z,25.50
2019-01-30T21:58:33.944Z,25.30
2019-01-30T22:01:07.747Z,25.00
2019-01-30T22:03:47.446Z,24.80
2019-01-30T22:06:20.645Z,24.60
2019-01-30T22:09:00.535Z,24.70
2019-01-30T22:11:33.648Z,24.80
2019-01-30T22:14:06.973Z,24.70
2019-01-30T22:16:40.180Z,24.60
2019-01-30T22:19:15.390Z,24.20
2019-01-30T22:21:51.469Z,24.30
2019-01-30T22:24:24.794Z,24.30
2019-01-30T22:26:58.353Z,24.30
2019-01-30T22:29:31.454Z,24.30
2019-01-30T22:32:04.622Z,24.50
2019-01-30T22:34:37.896Z,24.50
2019-01-30T22:37:11.273Z,24.30
2019-01-30T22:39:44.426Z,24.00
2019-01-30T22:42:17.645Z,24.20
2019-01-30T22:45:07.880Z,24.10
2019-01-30T22:47:42.630Z,24.10
2019-01-30T22:50:22.757Z,24.00
2019-01-30T22:52:56.152Z,23.80
2019-01-30T22:55:29.542Z,23.60
2019-01-30T22:58:02.756Z,23.80
2019-01-30T23:01:14.144Z,24.30
2019-01-30T23:03:54.398Z,24.70
2019-01-30T23:06:58.746Z,24.70
2019-01-30T23:10:06.147Z,24.70
2019-01-30T23:13:21.194Z,24.70
2019-01-30T23:16:19.228Z,24.40
2019-01-30T23:19:22.869Z,23.90
2019-01-30T23:22:28.332Z,23.80
2019-01-30T23:25:55.764Z,23.60
2019-01-30T23:29:06.973Z,23.10
2019-01-30T23:32:04.030Z,22.60
2019-01-30T23:35:13.438Z,22.20
2019-01-30T23:38:34.033Z,22.00
2019-01-30T23:41:41.016Z,21.80
2019-01-30T23:44:38.923Z,21.50
2019-01-30T23:47:50.522Z,21.30
2019-01-30T23:51:04.464Z,21.10
2019-01-30T23:53:59.054Z,21.00
2019-01-30T23:56:51.316Z,20.80
2019-01-30T23:59:49.288Z,20.70
